Time;durP1;ratioP1;P1;durP2;ratioP2;P2;SDS_P1;SDS_P2;PMS_P1;PMS_P2;Temp;Humidity;BMP_temperature;BMP_pressure;BME280_temperature;BME280_humidity;BME280_pressure;Samples;Min_cycle;Max_cycle;Signal;HPM_P1;HPM_P2
2023/10/13 00:00:36;;;;;;;14.93;10.43;;;;;;;17.18;100.00;101118.13;5095450;28;20180;-63
2023/10/13 00:03:05;;;;;;;16.65;10.88;;;;;;;17.19;100.00;101127.91;5095378;28;20027;-62
2023/10/13 00:05:32;;;;;;;19.05;10.45;;;;;;;17.19;100.00;101119.88;5095319;28;20085;-63
2023/10/13 00:08:02;;;;;;;18.35;10.45;;;;;;;17.19;100.00;101123.44;5094978;28;20020;-63
2023/10/13 00:10:31;;;;;;;19.05;10.07;;;;;;;17.18;100.00;101119.00;5095138;28;20462;-63
2023/10/13 00:15:57;;;;;;;17.63;9.85;;;;;;;17.18;100.00;101103.00;5094854;28;20067;-63
2023/10/13 00:18:33;;;;;;;17.95;9.95;;;;;;;17.19;100.00;101101.19;5095194;28;20074;-63
2023/10/13 00:21:31;;;;;;;16.40;10.02;;;;;;;17.17;100.00;101103.91;5095169;28;20043;-62
2023/10/13 00:23:57;;;;;;;19.67;9.68;;;;;;;17.17;100.00;101093.22;5094646;28;20028;-63
2023/10/13 00:26:27;;;;;;;15.35;9.02;;;;;;;17.17;100.00;101090.53;5093060;28;20081;-63
2023/10/13 00:31:43;;;;;;;22.35;9.73;;;;;;;17.13;100.00;101095.91;5095005;28;20039;-63
2023/10/13 00:34:11;;;;;;;15.68;9.60;;;;;;;17.12;100.00;101089.69;5094598;28;20099;-62
2023/10/13 00:36:48;;;;;;;19.00;9.70;;;;;;;17.10;100.00;101082.63;5094711;28;20432;-63
2023/10/13 00:39:15;;;;;;;17.83;9.02;;;;;;;17.08;100.00;101081.75;5094601;28;20102;-62
2023/10/13 00:41:51;;;;;;;14.80;8.52;;;;;;;17.08;100.00;101077.28;5094548;28;20036;-64
2023/10/13 00:44:18;;;;;;;14.32;8.88;;;;;;;17.06;100.00;101076.44;5094625;28;20436;-64
2023/10/13 00:46:45;;;;;;;17.17;8.93;;;;;;;17.03;100.00;101071.13;5094228;28;20028;-63
2023/10/13 00:49:15;;;;;;;17.73;8.55;;;;;;;17.06;100.00;101078.22;5093195;28;20145;-63
2023/10/13 00:51:47;;;;;;;13.80;8.18;;;;;;;17.06;100.00;101076.44;5094416;28;20036;-62
2023/10/13 00:54:13;;;;;;;15.05;8.70;;;;;;;17.03;100.00;101082.69;5093884;28;20081;-64
2023/10/13 00:56:46;;;;;;;15.68;8.10;;;;;;;17.05;100.00;101068.44;5093819;28;20136;-62
2023/10/13 00:59:13;;;;;;;14.43;8.52;;;;;;;17.03;100.00;101065.78;5094387;28;20077;-63
2023/10/13 01:01:42;;;;;;;14.00;7.90;;;;;;;17.03;100.00;101060.44;5094100;28;20032;-63
2023/10/13 01:04:08;;;;;;;15.52;8.05;;;;;;;17.03;100.00;101055.97;5094111;28;20020;-63
2023/10/13 01:06:37;;;;;;;15.02;8.38;;;;;;;17.03;100.00;101050.63;5093906;28;20035;-63
2023/10/13 01:09:16;;;;;;;16.20;7.88;;;;;;;17.00;100.00;101048.03;5093780;28;20081;-63
2023/10/13 01:11:44;;;;;;;12.75;7.97;;;;;;;17.02;100.00;101048.88;5092582;28;20547;-63
2023/10/13 01:14:17;;;;;;;15.10;8.00;;;;;;;16.99;100.00;101046.25;5093765;28;20028;-63
2023/10/13 01:16:45;;;;;;;13.50;7.63;;;;;;;16.97;100.00;101039.16;5093651;28;20033;-63
2023/10/13 01:19:18;;;;;;;16.42;8.05;;;;;;;16.99;100.00;101038.22;5092744;28;20016;-63
2023/10/13 01:21:47;;;;;;;18.17;7.95;;;;;;;16.99;100.00;101040.03;5094062;28;20078;-63
2023/10/13 01:24:13;;;;;;;14.73;7.47;;;;;;;16.96;100.00;101030.28;5093857;28;20111;-63
2023/10/13 01:26:39;;;;;;;13.43;7.30;;;;;;;16.90;100.00;101017.00;5093309;28;20115;-62
2023/10/13 01:29:13;;;;;;;13.98;7.13;;;;;;;16.95;100.00;101016.94;5093809;28;20023;-63
2023/10/13 01:31:45;;;;;;;12.88;7.20;;;;;;;16.96;100.00;101016.06;5092306;28;20032;-63
2023/10/13 01:34:21;;;;;;;13.73;6.53;;;;;;;16.96;100.00;101014.25;5093522;28;20354;-64
2023/10/13 01:36:54;;;;;;;13.65;6.30;;;;;;;16.96;100.00;101008.94;5093608;28;20024;-63
2023/10/13 01:39:21;;;;;;;14.35;7.10;;;;;;;16.95;100.00;101008.94;5093078;28;20081;-64
2023/10/13 01:41:53;;;;;;;10.52;6.75;;;;;;;16.95;100.00;101003.59;5093604;28;20141;-64
2023/10/13 01:44:19;;;;;;;;;;;;;;;16.99;100.00;100997.31;5094070;28;20063;-64
2023/10/13 01:46:47;;;;;;;14.23;6.70;;;;;;;16.95;100.00;101000.91;5093562;28;19908;-63
2023/10/13 01:49:15;;;;;;;10.52;6.70;;;;;;;16.93;100.00;100986.72;5093520;28;20032;-64
2023/10/13 01:51:40;;;;;;;13.27;6.85;;;;;;;16.93;100.00;100981.38;5093517;28;20543;-63
2023/10/13 01:54:11;;;;;;;13.65;6.40;;;;;;;16.91;100.00;100980.50;5093136;28;20024;-62
2023/10/13 01:56:42;;;;;;;12.40;6.43;;;;;;;16.90;100.00;100982.28;5092842;28;20036;-63
2023/10/13 01:59:09;;;;;;;14.73;6.40;;;;;;;16.92;100.00;100971.63;5093426;28;20044;-63
2023/10/13 02:01:34;;;;;;;15.93;6.68;;;;;;;16.89;100.00;100964.53;5093143;28;20028;-63
2023/10/13 02:04:04;;;;;;;13.18;6.60;;;;;;;16.89;100.00;100969.84;5093149;28;20027;-62
2023/10/13 02:06:34;;;;;;;11.98;6.80;;;;;;;16.88;100.00;100961.88;5093346;28;20077;-64
2023/10/13 02:09:12;;;;;;;9.95;6.57;;;;;;;16.88;100.00;100953.88;5093219;28;20024;-63
2023/10/13 02:11:43;;;;;;;17.02;6.60;;;;;;;16.89;100.00;100952.97;5092962;28;20034;-64
2023/10/13 02:14:11;;;;;;;14.38;7.63;;;;;;;16.90;100.00;100955.59;5093122;28;20035;-64
2023/10/13 02:16:36;;;;;;;15.80;7.15;;;;;;;16.88;100.00;100959.22;5092998;28;20039;-63
2023/10/13 02:19:05;;;;;;;13.52;8.00;;;;;;;16.89;100.00;100956.50;5075179;28;20028;-63
2023/10/13 02:21:38;;;;;;;18.10;7.78;;;;;;;16.90;100.00;100957.41;5093046;28;20028;-63
2023/10/13 02:24:12;;;;;;;17.70;7.78;;;;;;;16.87;100.00;100947.63;5093076;28;20040;-63
2023/10/13 02:26:40;;;;;;;13.05;8.68;;;;;;;16.90;100.00;100952.94;5092692;28;20486;-62
2023/10/13 02:29:07;;;;;;;20.30;9.63;;;;;;;16.89;100.00;100943.16;5092763;28;20024;-62
2023/10/13 02:31:35;;;;;;;18.80;10.07;;;;;;;16.94;100.00;100956.44;5092811;28;20028;-63
2023/10/13 02:34:05;;;;;;;18.50;10.57;;;;;;;16.93;100.00;100946.69;5092730;28;20455;-63
2023/10/13 02:36:37;;;;;;;16.60;10.32;;;;;;;16.92;100.00;100929.78;5092664;28;20032;-62
2023/10/13 02:39:08;;;;;;;16.67;10.38;;;;;;;16.93;100.00;100928.00;5092764;28;20035;-62
2023/10/13 02:41:38;;;;;;;20.10;11.20;;;;;;;16.93;100.00;100923.53;5083533;28;20466;-63
2023/10/13 02:44:08;;;;;;;19.85;11.20;;;;;;;16.96;100.00;100920.84;5072453;28;20033;-63
2023/10/13 02:46:39;;;;;;;22.60;11.30;;;;;;;16.96;100.00;100920.84;5072437;28;20033;-64
2023/10/13 02:49:11;;;;;;;19.02;11.80;;;;;;;16.97;100.00;100903.03;5072393;28;20040;-63
2023/10/13 02:51:41;;;;;;;23.70;12.05;;;;;;;16.97;100.00;100903.03;5074876;28;20028;-63
2023/10/13 02:54:31;;;;;;;23.33;12.77;;;;;;;16.98;100.00;100891.44;5076126;28;20474;-62
2023/10/13 02:57:03;;;;;;;22.33;13.23;;;;;;;16.97;100.00;100884.34;5075796;28;20131;-62
2023/10/13 02:59:40;;;;;;;23.55;12.45;;;;;;;16.97;100.00;100877.22;5076054;28;20055;-63
2023/10/13 03:02:29;;;;;;;21.98;13.13;;;;;;;16.96;100.00;100875.47;5075975;28;20029;-63
2023/10/13 03:05:16;;;;;;;20.45;12.40;;;;;;;17.01;100.00;100868.25;5075292;28;20490;-64
2023/10/13 03:07:43;;;;;;;23.85;13.55;;;;;;;17.00;100.00;100876.25;5075397;28;20040;-63
2023/10/13 03:10:10;;;;;;;26.73;14.82;;;;;;;16.98;100.00;100862.94;5075825;28;20040;-63
2023/10/13 03:12:36;;;;;;;27.40;14.98;;;;;;;17.00;100.00;100846.91;5075847;28;20071;-64
2023/10/13 03:15:19;;;;;;;27.40;14.88;;;;;;;17.01;100.00;100848.69;5075764;28;20033;-63
2023/10/13 03:17:45;;;;;;;26.05;14.55;;;;;;;17.02;100.00;100837.97;5075729;28;20032;-63
2023/10/13 03:20:16;;;;;;;25.52;14.60;;;;;;;17.02;100.00;100842.44;5075576;28;20031;-63
2023/10/13 03:22:45;;;;;;;26.73;14.88;;;;;;;17.05;100.00;100846.84;5075486;28;20469;-63
2023/10/13 03:25:18;;;;;;;23.48;14.10;;;;;;;17.03;100.00;100822.84;5075834;28;20025;-63
2023/10/13 03:30:20;;;;;;;25.73;14.88;;;;;;;17.04;100.00;100816.56;5075637;28;20032;-62
2023/10/13 03:32:47;;;;;;;29.23;16.65;;;;;;;17.02;100.00;100808.59;5075386;28;20025;-64
2023/10/13 03:35:16;;;;;;;27.02;16.25;;;;;;;17.03;100.00;100798.81;5075345;28;20371;-64
2023/10/13 03:37:42;;;;;;;26.58;16.35;;;;;;;17.07;100.00;100804.97;5075178;28;20116;-62
2023/10/13 03:43:04;;;;;;;27.15;16.95;;;;;;;17.13;100.00;100783.50;5075567;28;20036;-63
2023/10/13 03:45:39;;;;;;;25.90;16.83;;;;;;;17.12;100.00;100787.97;5075545;28;20078;-63
2023/10/13 03:51:10;;;;;;;28.55;16.55;;;;;;;17.15;100.00;100763.88;5075124;28;20035;-63
2023/10/13 03:53:52;;;;;;;30.77;17.48;;;;;;;17.19;100.00;100770.94;5074900;28;20561;-64
2023/10/13 03:56:26;;;;;;;28.58;16.85;;;;;;;17.21;100.00;100768.22;5074308;28;20048;-64
2023/10/13 03:58:59;;;;;;;31.88;18.55;;;;;;;17.22;100.00;100765.56;5075289;28;20048;-62
2023/10/13 04:04:11;;;;;;;29.60;17.48;;;;;;;17.25;100.00;100746.78;5075234;28;20048;-63
2023/10/13 04:17:23;;;;;;;27.87;16.23;;;;;;;17.33;100.00;100711.94;5074978;28;20055;-63
2023/10/13 04:25:35;;;;;;;24.00;15.73;;;;;;;17.37;100.00;100715.44;5074566;28;20350;-64
2023/10/13 04:33:36;;;;;;;27.45;15.48;;;;;;;17.41;100.00;100712.66;5074406;28;20033;-63
2023/10/13 04:36:01;;;;;;;25.35;14.57;;;;;;;17.43;100.00;100729.56;5074090;28;20025;-62
2023/10/13 04:38:50;;;;;;;28.25;15.77;;;;;;;17.44;100.00;100712.59;5074152;28;20016;-64
2023/10/13 04:41:22;;;;;;;26.30;13.73;;;;;;;17.46;100.00;100712.56;5074079;28;20048;-62
2023/10/13 04:43:56;;;;;;;23.58;13.85;;;;;;;17.46;100.00;100708.09;5074384;28;20032;-63
2023/10/13 04:46:39;;;;;;;21.52;14.02;;;;;;;17.50;100.00;100707.13;5074115;28;20378;-63
2023/10/13 04:49:10;;;;;;;;;;;;;;;17.53;100.00;100701.75;5073449;28;20394;-63
2023/10/13 04:54:34;;;;;;;22.88;13.18;;;;;;;17.57;100.00;100718.59;5074164;28;20161;-64
2023/10/13 04:57:23;;;;;;;20.90;12.57;;;;;;;17.58;100.00;100709.66;5073748;28;20186;-64
2023/10/13 05:52:06;;;;;;;11.50;7.28;;;;;;;17.67;100.00;100615.06;5073415;28;20056;-62
2023/10/13 06:29:33;;;;;;;15.05;7.43;;;;;;;17.65;100.00;100616.91;5076647;28;20117;-65
2023/10/13 06:32:01;;;;;;;18.90;7.75;;;;;;;17.64;100.00;100602.63;5076389;28;20433;-64
2023/10/13 06:34:46;;;;;;;19.65;7.68;;;;;;;17.66;100.00;100597.28;5076732;28;20064;-64
2023/10/13 06:37:26;;;;;;;19.70;7.50;;;;;;;17.68;100.00;100601.66;5076557;28;20032;-63
2023/10/13 06:40:14;;;;;;;16.52;7.35;;;;;;;17.69;100.00;100595.41;5076532;28;20093;-65
2023/10/13 06:42:42;;;;;;;16.50;7.13;;;;;;;17.67;100.00;100578.53;5076207;28;20028;-64
2023/10/13 06:45:09;;;;;;;16.75;7.40;;;;;;;17.69;100.00;100587.41;5076183;28;20029;-64
2023/10/13 06:47:42;;;;;;;14.10;6.75;;;;;;;17.70;100.00;100585.59;5076288;28;20032;-65
2023/10/13 06:50:19;;;;;;;15.70;7.22;;;;;;;17.72;100.00;100579.28;5076042;28;20107;-63
2023/10/13 06:52:48;;;;;;;18.70;7.20;;;;;;;17.74;100.00;100571.28;5075921;28;20052;-64
2023/10/13 06:55:17;;;;;;;17.20;7.05;;;;;;;17.73;100.00;100567.72;5075810;28;20033;-65
2023/10/13 06:57:46;;;;;;;16.70;7.05;;;;;;;17.76;100.00;100578.34;5075635;28;20102;-65
2023/10/13 07:00:52;;;;;;;18.52;7.05;;;;;;;17.76;100.00;100570.31;5075675;28;20039;-64
2023/10/13 07:03:17;;;;;;;;;;;;;;;17.79;100.00;100572.06;5072940;28;20043;-64
2023/10/13 07:05:43;;;;;;;20.65;7.65;;;;;;;17.80;100.00;100557.78;5075872;28;19919;-63
2023/10/13 07:08:13;;;;;;;17.52;7.32;;;;;;;17.81;100.00;100547.94;5075537;28;20393;-64
2023/10/13 07:10:48;;;;;;;18.70;7.38;;;;;;;17.80;100.00;100555.09;5075931;28;20470;-64
2023/10/13 07:13:13;;;;;;;18.52;6.93;;;;;;;17.80;100.00;100541.72;5075868;28;20044;-64
2023/10/13 07:15:44;;;;;;;21.00;7.72;;;;;;;17.82;100.00;100542.59;5075466;28;20025;-64
2023/10/13 07:18:15;;;;;;;19.02;7.25;;;;;;;17.84;100.00;100531.84;5075733;28;20125;-63
2023/10/13 07:20:44;;;;;;;15.02;6.63;;;;;;;17.84;100.00;100527.38;5075370;28;20041;-65
2023/10/13 07:23:20;;;;;;;17.42;7.32;;;;;;;17.87;100.00;100530.00;5075543;28;20052;-64
2023/10/13 07:26:02;;;;;;;16.65;6.80;;;;;;;17.93;100.00;100519.13;5074078;28;20498;-64
2023/10/13 07:28:31;;;;;;;14.40;6.65;;;;;;;17.95;100.00;100525.34;5075489;28;20037;-64
2023/10/13 07:33:25;;;;;;;15.90;6.45;;;;;;;18.02;100.00;100512.69;5075249;28;20044;-64
2023/10/13 07:36:15;;;;;;;21.83;6.97;;;;;;;18.09;100.00;100510.75;5075221;28;20397;-64
2023/10/13 07:38:59;;;;;;;18.88;6.82;;;;;;;18.12;100.00;100513.34;5075181;28;20036;-63
2023/10/13 07:41:30;;;;;;;21.15;6.65;;;;;;;18.15;100.00;100516.78;5075060;28;20067;-64
2023/10/13 07:43:57;;;;;;;20.00;6.80;;;;;;;18.20;100.00;100524.69;5075461;28;20036;-65
2023/10/13 07:46:29;;;;;;;19.58;6.57;;;;;;;18.27;100.00;100515.59;5075018;28;20079;-65
2023/10/13 07:49:08;;;;;;;17.80;6.57;;;;;;;18.32;100.00;100519.03;5075329;28;20039;-64
2023/10/13 07:51:40;;;;;;;16.33;6.07;;;;;;;18.39;100.00;100514.41;5075197;28;20041;-63
2023/10/13 07:54:11;;;;;;;16.65;5.82;;;;;;;18.43;100.00;100511.59;5073771;28;20032;-64
2023/10/13 07:56:39;;;;;;;18.85;6.32;;;;;;;18.49;100.00;100508.75;5074459;28;20082;-64
2023/10/13 07:59:06;;;;;;;16.15;5.93;;;;;;;18.56;100.00;100497.91;5074742;28;20036;-64
2023/10/13 08:01:32;;;;;;;19.13;6.43;;;;;;;18.59;100.00;100493.34;5074676;28;20097;-64
2023/10/13 08:04:14;;;;;;;18.63;6.13;;;;;;;18.61;100.00;100512.03;5074577;28;20020;-63
2023/10/13 08:06:44;;;;;;;15.43;6.20;;;;;;;18.61;100.00;100494.16;5073530;28;20471;-64
2023/10/13 08:11:54;;;;;;;18.20;6.05;;;;;;;18.70;100.00;100493.06;5074870;28;20047;-65
2023/10/13 08:14:23;;;;;;;15.68;6.18;;;;;;;18.76;100.00;100501.81;5074356;28;20066;-65
2023/10/13 08:16:52;;;;;;;18.77;6.68;;;;;;;18.81;100.00;100492.78;5074467;28;20112;-64
2023/10/13 08:19:39;;;;;;;18.05;6.35;;;;;;;18.84;100.00;100488.19;5091413;28;20522;-64
2023/10/13 08:32:14;;;;;;;13.43;5.95;;;;;;;19.18;100.00;100496.09;5094591;28;20036;-64
2023/10/13 08:45:20;;;;;;;15.43;6.53;;;;;;;19.44;100.00;100481.91;5093997;28;20110;-63
2023/10/13 08:53:44;;;;;;;16.38;6.15;;;;;;;19.70;100.00;100485.59;5093922;28;20133;-64
2023/10/13 08:56:34;;;;;;;18.60;6.07;;;;;;;19.69;100.00;100465.94;5038187;28;20049;-64
2023/10/13 08:59:05;;;;;;;19.13;6.13;;;;;;;19.68;100.00;100456.16;5051368;28;20036;-64
2023/10/13 09:04:26;;;;;;;19.70;6.35;;;;;;;19.74;100.00;100468.47;5051293;28;20033;-65
2023/10/13 09:07:07;;;;;;;18.83;6.65;;;;;;;19.76;100.00;100447.84;5051258;28;20398;-65
2023/10/13 09:12:14;;;;;;;15.63;6.40;;;;;;;19.76;100.00;100450.53;5050781;28;20086;-64
2023/10/13 09:14:56;;;;;;;;;;;;;;;19.80;100.00;100446.81;5051204;28;20025;-64
2023/10/13 09:17:39;;;;;;;23.42;6.50;;;;;;;19.77;100.00;100442.44;5050904;28;19913;-64
2023/10/13 09:25:34;;;;;;;18.50;6.53;;;;;;;19.78;100.00;100440.63;5050785;28;20037;-63
2023/10/13 09:28:10;;;;;;;18.35;6.93;;;;;;;19.78;100.00;100440.63;5084794;28;20036;-65
2023/10/13 09:30:49;;;;;;;17.92;6.10;;;;;;;19.81;100.00;100448.56;5092918;28;20028;-64
2023/10/13 09:33:50;;;;;;;20.13;6.22;;;;;;;19.86;100.00;100433.19;5091499;28;20397;-64
2023/10/13 09:36:19;;;;;;;19.30;6.78;;;;;;;19.86;99.57;100433.19;5092148;28;20028;-64
2023/10/13 09:38:49;;;;;;;16.80;6.32;;;;;;;19.86;99.45;100441.25;5092593;28;20032;-63
2023/10/13 09:41:26;;;;;;;16.55;6.38;;;;;;;19.88;100.00;100435.84;5092861;28;20031;-63
2023/10/13 09:43:52;;;;;;;18.00;6.25;;;;;;;20.00;98.62;100427.38;5093294;28;20111;-63
2023/10/13 09:46:26;;;;;;;15.60;6.20;;;;;;;20.14;99.35;100434.94;5092779;28;20540;-63
2023/10/13 09:49:14;;;;;;;21.90;6.20;;;;;;;20.26;96.13;100427.34;5097872;28;20525;-64
2023/10/13 09:51:44;;;;;;;18.58;6.07;;;;;;;20.30;95.62;100422.72;5102407;28;20059;-63
2023/10/13 09:54:41;;;;;;;20.35;6.60;;;;;;;20.29;93.82;100418.28;5097173;28;20047;-65
2023/10/13 09:57:18;;;;;;;21.88;6.47;;;;;;;20.32;94.42;100425.34;5097304;28;20043;-64
2023/10/13 10:00:29;;;;;;;20.08;6.55;;;;;;;20.36;93.85;100427.00;5098297;28;20027;-65
2023/10/13 10:03:14;;;;;;;18.90;5.85;;;;;;;20.44;92.16;100401.63;5100860;28;20465;-64
2023/10/13 10:05:41;;;;;;;19.88;6.30;;;;;;;20.58;92.42;100413.69;5094262;28;20500;-63
2023/10/13 10:08:09;;;;;;;15.88;5.75;;;;;;;20.70;90.81;100416.78;5103607;28;20019;-64
2023/10/13 10:11:00;;;;;;;16.80;5.97;;;;;;;20.76;89.78;100416.53;5100391;28;20024;-65
2023/10/13 10:13:38;;;;;;;21.00;6.22;;;;;;;20.75;90.83;100395.13;5102768;28;20441;-64
2023/10/13 10:16:14;;;;;;;19.38;6.10;;;;;;;20.78;90.39;100397.72;5103498;28;20070;-64
2023/10/13 10:18:42;;;;;;;22.48;6.30;;;;;;;20.77;88.88;100398.66;5103278;28;20024;-63
2023/10/13 10:21:09;;;;;;;18.85;6.47;;;;;;;20.75;88.46;100403.19;5092004;28;20016;-64
2023/10/13 10:23:43;;;;;;;21.33;6.30;;;;;;;20.74;87.65;100385.34;5104001;28;20036;-64
2023/10/13 10:26:15;;;;;;;22.40;6.15;;;;;;;20.74;87.96;100391.56;5100846;28;20058;-64
2023/10/13 10:28:43;;;;;;;22.27;6.07;;;;;;;20.71;86.95;100390.81;5102745;28;20020;-65
2023/10/13 10:31:15;;;;;;;15.88;6.45;;;;;;;20.73;88.50;100387.16;5097843;28;20417;-65
2023/10/13 10:33:41;;;;;;;22.42;6.45;;;;;;;20.75;87.75;100379.88;5102467;28;20081;-64
2023/10/13 10:36:14;;;;;;;20.08;6.22;;;;;;;20.77;87.39;100382.53;5100823;28;20020;-64
2023/10/13 10:39:02;;;;;;;17.27;6.28;;;;;;;20.81;88.30;100372.53;5103727;28;20031;-64
2023/10/13 10:41:37;;;;;;;15.68;6.53;;;;;;;20.81;86.23;100383.25;5100273;28;20102;-65
2023/10/13 10:44:08;;;;;;;20.30;6.20;;;;;;;20.83;85.33;100371.53;5092351;28;20032;-64
2023/10/13 10:46:42;;;;;;;19.80;6.38;;;;;;;20.91;83.53;100379.31;5091079;28;20032;-64
2023/10/13 10:49:08;;;;;;;17.88;6.47;;;;;;;20.92;84.30;100367.63;5092729;28;20036;-65
2023/10/13 10:51:43;;;;;;;15.38;6.00;;;;;;;20.94;85.38;100388.13;5111967;28;20507;-65
2023/10/13 10:54:18;;;;;;;24.17;6.90;;;;;;;20.89;85.97;100367.72;5112626;28;20073;-64
2023/10/13 10:56:52;;;;;;;18.98;5.55;;;;;;;20.94;80.28;100371.09;5111026;28;20496;-64
2023/10/13 10:59:19;;;;;;;17.23;5.72;;;;;;;21.00;81.32;100369.06;5112650;28;20077;-64
2023/10/13 11:01:50;;;;;;;21.27;6.45;;;;;;;21.08;81.72;100368.75;5112778;28;20544;-65
2023/10/13 11:06:54;;;;;;;19.98;6.78;;;;;;;21.18;83.37;100377.31;5112614;28;20825;-64
2023/10/13 11:11:52;;;;;;;19.33;6.35;;;;;;;21.21;82.83;100367.31;5113912;28;19972;-64
2023/10/13 11:14:27;;;;;;;19.50;6.45;;;;;;;21.29;82.05;100371.53;5116092;28;20029;-63
2023/10/13 11:16:54;;;;;;;19.27;6.50;;;;;;;21.32;81.93;100364.22;5115843;28;20046;-64
2023/10/13 11:19:25;;;;;;;19.92;6.43;;;;;;;21.35;81.52;100352.47;5113223;28;20042;-66
2023/10/13 11:21:53;;;;;;;32.30;6.47;;;;;;;21.38;82.27;100355.91;5103387;28;20020;-65
2023/10/13 11:24:18;;;;;;;17.38;6.40;;;;;;;21.38;82.16;100342.47;5104295;28;20374;-64
2023/10/13 11:26:49;;;;;;;17.23;6.72;;;;;;;21.40;80.91;100347.78;5101758;28;20016;-65
2023/10/13 11:29:31;;;;;;;20.38;6.55;;;;;;;21.42;81.30;100332.47;5104622;28;20024;-64
2023/10/13 11:32:00;;;;;;;20.30;6.25;;;;;;;21.46;81.01;100324.22;5103994;28;20461;-65
2023/10/13 11:34:35;;;;;;;21.92;6.90;;;;;;;21.48;80.64;100305.31;5101540;28;20504;-64
2023/10/13 11:37:28;;;;;;;22.10;6.78;;;;;;;21.57;80.58;100315.66;5108489;28;20048;-65
2023/10/13 11:39:47;;;;;;;21.13;7.03;;;;;;;21.65;81.25;100294.69;5115358;28;20075;-65
2023/10/13 11:42:12;;;;;;;16.63;6.40;;;;;;;21.71;79.71;100301.63;5114246;28;20032;-66
2023/10/13 11:44:43;;;;;;;20.58;6.68;;;;;;;21.77;79.24;100297.81;5114094;28;20027;-64
2023/10/13 11:49:56;;;;;;;15.38;5.95;;;;;;;21.91;77.47;100285.47;5114703;28;20055;-65
2023/10/13 11:52:26;;;;;;;18.10;6.65;;;;;;;21.98;77.47;100267.25;5112815;28;20131;-64
2023/10/13 11:54:51;;;;;;;24.60;6.18;;;;;;;22.03;77.57;100275.13;5113940;28;20374;-64
2023/10/13 11:57:19;;;;;;;22.75;6.20;;;;;;;22.06;75.92;100299.19;5115156;28;20128;-64
2023/10/13 11:59:52;;;;;;;22.33;6.50;;;;;;;22.11;75.48;100270.25;5114201;28;20027;-65
2023/10/13 12:04:54;;;;;;;19.58;6.38;;;;;;;22.16;75.77;100263.75;5115461;28;20178;-65
2023/10/13 12:07:23;;;;;;;22.65;6.60;;;;;;;22.20;74.14;100265.34;5115795;28;20047;-64
2023/10/13 12:12:23;;;;;;;20.17;6.57;;;;;;;22.28;75.44;100272.19;5115789;28;20039;-65
2023/10/13 12:14:55;;;;;;;22.88;6.70;;;;;;;22.35;74.65;100269.13;5115441;28;20030;-65
2023/10/13 12:17:57;;;;;;;;;;;;;;;22.44;75.47;100255.25;5115699;28;20133;-66
2023/10/13 12:20:18;;;;;;;28.90;7.03;;;;;;;22.53;74.02;100250.38;5111916;28;20006;-64
2023/10/13 12:22:54;;;;;;;18.58;6.47;;;;;;;22.60;72.57;100249.09;5114451;27;20024;-65
2023/10/13 12:28:22;;;;;;;25.23;7.35;;;;;;;22.73;74.07;100250.25;5090789;28;20044;-65
2023/10/13 12:30:54;;;;;;;21.95;6.60;;;;;;;22.75;72.85;100253.75;5115198;28;20032;-64
2023/10/13 12:33:40;;;;;;;23.57;7.00;;;;;;;22.77;72.69;100257.25;5114978;28;20027;-66
2023/10/13 12:36:30;;;;;;;18.00;6.82;;;;;;;22.80;72.66;100269.69;5114684;28;20741;-65
2023/10/13 12:50:13;;;;;;;21.38;6.53;;;;;;;22.78;71.60;100250.03;5114900;28;20392;-65
2023/10/13 12:52:34;;;;;;;18.83;6.05;;;;;;;22.78;70.75;100252.72;5114014;28;20134;-64
2023/10/13 12:55:05;;;;;;;22.55;6.43;;;;;;;22.77;71.49;100243.78;5113159;28;20035;-64
2023/10/13 12:57:32;;;;;;;18.92;5.93;;;;;;;22.78;70.70;100242.81;5114160;28;20048;-63
2023/10/13 12:59:57;;;;;;;19.48;6.47;;;;;;;22.79;71.26;100233.81;5114653;28;20030;-64
2023/10/13 13:02:27;;;;;;;20.02;6.55;;;;;;;22.78;70.23;100239.25;5114431;28;20031;-65
2023/10/13 13:05:01;;;;;;;20.58;5.70;;;;;;;22.79;70.77;100243.72;5114369;28;20058;-65
2023/10/13 13:07:29;;;;;;;23.30;5.85;;;;;;;22.82;69.18;100230.06;5114144;28;20027;-64
2023/10/13 13:09:58;;;;;;;18.02;5.47;;;;;;;22.86;69.82;100237.91;5114221;27;20110;-64
2023/10/13 13:12:24;;;;;;;20.65;5.88;;;;;;;22.91;67.17;100240.41;5114308;28;20338;-65
2023/10/13 13:14:54;;;;;;;19.63;6.07;;;;;;;22.94;68.33;100222.28;5112595;28;20051;-65
2023/10/13 13:17:20;;;;;;;23.65;6.10;;;;;;;22.95;68.39;100229.44;5114216;28;20039;-64
2023/10/13 13:19:45;;;;;;;19.80;6.32;;;;;;;22.95;67.98;100226.75;5114176;28;20026;-64
2023/10/13 13:22:13;;;;;;;19.77;5.40;;;;;;;22.93;67.29;100235.84;5113849;28;20081;-65
2023/10/13 13:24:43;;;;;;;18.10;5.60;;;;;;;22.91;67.73;100230.53;5113748;28;20534;-64
2023/10/13 13:27:18;;;;;;;21.02;5.47;;;;;;;22.88;68.17;100219.88;5113663;28;20031;-65
2023/10/13 13:29:44;;;;;;;21.27;5.60;;;;;;;22.90;66.97;100226.06;5113744;28;20100;-64
2023/10/13 13:32:22;;;;;;;23.02;5.45;;;;;;;22.90;66.74;100223.38;5114022;28;20042;-64
2023/10/13 13:35:05;;;;;;;20.85;5.55;;;;;;;22.90;66.79;100209.03;5113173;28;20035;-64
2023/10/13 13:37:31;;;;;;;20.42;5.55;;;;;;;22.91;65.87;100230.53;5113718;28;20119;-65
2023/10/13 13:40:13;;;;;;;24.60;5.60;;;;;;;22.85;66.27;100216.47;5113309;28;20020;-64
2023/10/13 13:42:40;;;;;;;13.40;4.80;;;;;;;22.83;66.02;100229.16;5113547;28;20469;-65
2023/10/13 13:45:11;;;;;;;22.45;5.68;;;;;;;22.79;66.58;100224.84;5113332;28;20063;-64
2023/10/13 13:47:36;;;;;;;19.42;5.38;;;;;;;22.73;66.28;100209.84;5113520;28;20028;-64
2023/10/13 13:50:06;;;;;;;20.52;5.72;;;;;;;22.72;66.38;100218.88;5113446;28;20044;-64
2023/10/13 13:52:33;;;;;;;19.85;5.47;;;;;;;22.69;66.87;100219.91;5113220;28;20023;-63
2023/10/13 13:55:02;;;;;;;19.58;5.65;;;;;;;22.64;67.36;100221.09;5113179;28;20034;-64
2023/10/13 13:57:29;;;;;;;20.52;5.63;;;;;;;22.60;67.08;100220.34;5112669;28;20389;-64
2023/10/13 13:59:57;;;;;;;13.23;4.90;;;;;;;22.66;67.31;100213.81;5113179;28;20035;-64
2023/10/13 14:02:23;;;;;;;15.85;5.30;;;;;;;22.66;66.82;100227.28;5113321;28;20030;-64
2023/10/13 14:04:52;;;;;;;23.50;5.80;;;;;;;22.68;66.50;100217.28;5113223;28;20384;-63
2023/10/13 14:07:24;;;;;;;15.63;5.25;;;;;;;22.69;67.04;100211.81;5111789;28;20032;-64
2023/10/13 14:09:52;;;;;;;22.90;5.32;;;;;;;22.65;67.30;100206.66;5113130;28;20063;-64
2023/10/13 14:12:41;;;;;;;17.05;5.10;;;;;;;22.63;66.97;100217.53;5113014;28;20028;-63
2023/10/13 14:15:19;;;;;;;17.38;5.55;;;;;;;22.59;67.44;100199.75;5113508;28;20059;-63
2023/10/13 14:17:46;;;;;;;19.00;5.28;;;;;;;22.59;66.87;100232.09;5113354;28;20399;-64
2023/10/13 14:20:18;;;;;;;23.25;6.03;;;;;;;22.55;67.77;100211.63;5113322;28;20081;-65
2023/10/13 14:22:47;;;;;;;18.33;6.07;;;;;;;22.57;66.96;100206.16;5113257;28;20055;-63
2023/10/13 14:25:14;;;;;;;17.73;5.38;;;;;;;22.59;67.06;100205.16;5112884;28;20024;-64
2023/10/13 14:27:41;;;;;;;13.88;5.40;;;;;;;22.62;66.83;100205.00;5111857;28;20032;-63
2023/10/13 14:30:07;;;;;;;16.75;5.47;;;;;;;22.61;66.80;100210.44;5113155;28;20055;-65
2023/10/13 14:32:32;;;;;;;18.05;5.35;;;;;;;22.61;67.01;100203.28;5113256;28;20051;-65
2023/10/13 14:35:00;;;;;;;19.17;5.68;;;;;;;22.64;67.00;100203.09;5112708;28;20106;-64
2023/10/13 14:37:30;;;;;;;16.77;5.65;;;;;;;22.65;66.93;100209.34;5112777;28;20032;-63
2023/10/13 14:39:57;;;;;;;19.02;5.30;;;;;;;22.64;66.73;100207.63;5113040;28;20036;-64
2023/10/13 14:42:24;;;;;;;13.75;5.38;;;;;;;22.64;66.51;100202.22;5113138;28;20048;-64
2023/10/13 14:44:55;;;;;;;16.15;5.45;;;;;;;22.63;67.37;100216.66;5112793;28;20016;-62
2023/10/13 14:47:24;;;;;;;21.50;5.50;;;;;;;22.59;67.70;100220.44;5115246;28;20035;-64
2023/10/13 14:49:59;;;;;;;21.13;5.57;;;;;;;22.57;68.11;100211.56;5117000;28;20039;-64
2023/10/13 14:52:25;;;;;;;16.60;5.10;;;;;;;22.52;67.60;100213.59;5117087;28;20090;-63